Time;durP1;ratioP1;P1;durP2;ratioP2;P2;SDS_P1;SDS_P2;PMS_P1;PMS_P2;Temp;Humidity;BMP_temperature;BMP_pressure;BME280_temperature;BME280_humidity;BME280_pressure;Samples;Min_cycle;Max_cycle;Signal;HPM_P1;HPM_P2
2022/11/07 00:02:22;;;;;;;6.95;4.10;;;11.30;96.70;;;;;;4923666;28;20134;-75
2022/11/07 00:04:51;;;;;;;6.15;4.38;;;11.40;96.70;;;;;;4937869;28;20445;-75
2022/11/07 00:07:19;;;;;;;10.23;5.25;;;11.40;96.70;;;;;;4929597;28;20046;-75
2022/11/07 00:09:47;;;;;;;5.78;4.07;;;11.40;96.70;;;;;;4948206;28;20074;-75
2022/11/07 00:12:14;;;;;;;6.10;3.72;;;11.40;96.70;;;;;;4947188;28;20050;-73
2022/11/07 00:14:42;;;;;;;4.88;3.28;;;11.40;96.70;;;;;;4929673;29;20074;-75
2022/11/07 00:17:10;;;;;;;6.30;3.80;;;11.40;96.70;;;;;;4928669;28;20513;-75
2022/11/07 00:19:38;;;;;;;3.67;3.00;;;11.30;96.70;;;;;;4957247;28;20044;-75
2022/11/07 00:22:07;;;;;;;4.70;3.20;;;11.20;96.70;;;;;;4930228;28;20046;-75
2022/11/07 00:24:35;;;;;;;3.67;2.90;;;11.20;96.70;;;;;;4954586;28;20046;-75
2022/11/07 00:27:03;;;;;;;4.95;2.70;;;11.30;96.70;;;;;;4955074;28;20043;-75
2022/11/07 00:29:31;;;;;;;5.13;2.60;;;11.30;96.70;;;;;;4934770;29;20072;-75
2022/11/07 00:31:59;;;;;;;4.40;3.05;;;11.30;96.70;;;;;;4960511;28;20050;-74
2022/11/07 00:34:27;;;;;;;4.82;2.80;;;11.30;96.70;;;;;;4937882;28;20054;-75
2022/11/07 00:36:54;;;;;;;5.10;2.92;;;11.30;96.70;;;;;;4977720;28;20129;-75
2022/11/07 00:39:24;;;;;;;4.50;3.20;;;11.20;96.70;;;;;;4937171;29;20056;-75
2022/11/07 00:41:51;;;;;;;4.15;3.10;;;11.30;96.70;;;;;;4928924;29;20035;-75
2022/11/07 00:44:19;;;;;;;6.90;3.58;;;11.30;96.70;;;;;;4926385;28;20056;-75
2022/11/07 00:46:47;;;;;;;5.40;3.60;;;11.10;96.70;;;;;;4936764;28;20047;-75
2022/11/07 00:49:15;;;;;;;3.95;2.90;;;11.10;96.70;;;;;;4950755;28;20501;-75
2022/11/07 00:51:43;;;;;;;5.25;3.20;;;11.20;96.70;;;;;;4940691;29;20057;-75
2022/11/07 00:54:10;;;;;;;4.18;3.20;;;11.20;96.70;;;;;;4918239;29;20489;-75
2022/11/07 00:56:40;;;;;;;5.90;3.50;;;11.10;96.70;;;;;;4911843;29;20085;-76
2022/11/07 00:59:08;;;;;;;6.70;2.90;;;11.10;96.70;;;;;;4949982;28;20043;-72
2022/11/07 01:01:36;;;;;;;4.70;2.88;;;11.00;96.70;;;;;;4929925;28;20069;-72
2022/11/07 01:06:51;;;;;;;5.28;3.00;;;11.10;96.70;;;;;;4949322;28;20141;-72
2022/11/07 01:09:20;;;;;;;4.55;2.30;;;10.90;96.70;;;;;;4929177;28;20393;-73
2022/11/07 01:11:49;;;;;;;3.17;2.53;;;10.90;96.70;;;;;;4941536;28;20118;-73
2022/11/07 01:14:20;;;;;;;5.40;2.80;;;10.90;96.70;;;;;;4922625;29;20054;-72
2022/11/07 01:16:48;;;;;;;4.55;2.45;;;11.00;96.70;;;;;;4954592;28;20054;-73
2022/11/07 01:19:16;;;;;;;3.03;2.20;;;10.80;96.70;;;;;;4940467;29;20063;-73
2022/11/07 01:21:44;;;;;;;5.90;2.80;;;10.90;96.70;;;;;;4927869;28;20110;-73
2022/11/07 01:24:14;;;;;;;5.60;2.40;;;10.80;96.70;;;;;;4922115;28;20059;-73
2022/11/07 01:26:43;;;;;;;3.30;2.50;;;10.80;96.70;;;;;;4925126;28;20390;-73
2022/11/07 01:29:12;;;;;;;3.88;2.50;;;10.80;96.70;;;;;;4944994;28;20070;-73
2022/11/07 01:31:40;;;;;;;3.85;2.55;;;10.90;96.70;;;;;;4949796;28;20695;-74
2022/11/07 01:34:08;;;;;;;4.00;2.53;;;10.80;96.70;;;;;;4928959;29;20102;-73
2022/11/07 01:36:36;;;;;;;3.90;2.33;;;10.80;96.70;;;;;;4955646;28;20604;-73
2022/11/07 01:39:04;;;;;;;3.08;1.95;;;10.80;96.70;;;;;;4937842;28;20058;-73
2022/11/07 01:41:35;;;;;;;3.58;1.90;;;10.80;96.70;;;;;;4959004;28;20623;-75
2022/11/07 01:44:42;;;;;;;3.55;2.00;;;10.70;96.70;;;;;;4949311;28;20058;-74
2022/11/07 01:47:11;;;;;;;3.92;2.20;;;10.70;96.70;;;;;;4940544;28;20497;-74
2022/11/07 01:49:41;;;;;;;3.42;2.35;;;10.70;96.70;;;;;;4945189;28;20512;-73
2022/11/07 01:52:13;;;;;;;3.42;2.47;;;10.70;96.70;;;;;;4947566;28;20473;-73
2022/11/07 01:54:47;;;;;;;3.58;2.30;;;10.80;96.70;;;;;;4931907;28;20035;-74
2022/11/07 01:57:19;;;;;;;4.05;2.47;;;10.70;96.70;;;;;;4958378;28;20055;-73
2022/11/07 01:59:50;;;;;;;4.82;2.25;;;10.60;96.70;;;;;;4945245;28;20047;-74
2022/11/07 02:02:21;;;;;;;3.15;2.08;;;10.70;96.70;;;;;;4937083;29;20494;-73
2022/11/07 02:04:50;;;;;;;5.53;2.88;;;10.60;96.70;;;;;;4927337;28;20051;-74
2022/11/07 02:07:19;;;;;;;3.85;2.60;;;10.60;96.70;;;;;;4932265;28;20046;-74
2022/11/07 02:09:48;;;;;;;4.47;2.95;;;10.60;96.70;;;;;;4952213;28;20039;-74
2022/11/07 02:12:17;;;;;;;3.08;2.35;;;10.50;96.70;;;;;;4947851;28;20476;-73
2022/11/07 02:14:45;;;;;;;4.05;2.80;;;10.50;96.70;;;;;;4935109;28;20531;-73
2022/11/07 02:17:14;;;;;;;3.65;2.40;;;10.70;96.70;;;;;;4963170;28;20050;-75
2022/11/07 02:19:46;;;;;;;4.50;2.60;;;10.60;96.70;;;;;;4947254;28;20036;-75
2022/11/07 02:22:21;;;;;;;2.95;2.33;;;10.50;96.70;;;;;;4934946;28;20571;-73
2022/11/07 02:24:54;;;;;;;4.57;2.40;;;10.40;96.70;;;;;;4939504;28;20054;-74
2022/11/07 02:27:25;;;;;;;3.22;2.10;;;10.30;96.70;;;;;;4936252;29;20130;-73
2022/11/07 02:29:57;;;;;;;4.53;2.35;;;10.50;96.70;;;;;;4928720;29;20078;-74
2022/11/07 02:32:25;;;;;;;3.53;2.72;;;10.50;96.70;;;;;;4944477;28;20051;-73
2022/11/07 02:34:56;;;;;;;4.43;2.67;;;10.50;96.70;;;;;;4950871;28;20222;-74
2022/11/07 02:37:30;;;;;;;4.28;2.58;;;10.30;96.70;;;;;;4940088;29;20055;-74
2022/11/07 02:39:59;;;;;;;4.32;2.58;;;10.30;96.70;;;;;;4924116;28;20059;-74
2022/11/07 02:42:42;;;;;;;4.75;2.78;;;10.30;96.70;;;;;;4930343;29;20102;-74
2022/11/07 02:45:12;;;;;;;5.68;2.72;;;10.30;96.70;;;;;;4927359;28;20457;-73
2022/11/07 02:47:41;;;;;;;5.75;2.72;;;10.20;96.70;;;;;;4938197;28;20057;-74
2022/11/07 02:50:10;;;;;;;3.65;2.55;;;10.20;96.70;;;;;;4946497;28;20101;-73
2022/11/07 02:52:37;;;;;;;4.53;2.85;;;10.10;96.70;;;;;;4967271;28;20070;-74
2022/11/07 02:55:08;;;;;;;3.90;2.22;;;10.30;96.70;;;;;;4939984;28;20054;-74
2022/11/07 02:57:36;;;;;;;5.22;2.70;;;10.20;96.70;;;;;;4942214;28;20122;-72
2022/11/07 03:00:05;;;;;;;4.10;2.60;;;10.10;96.70;;;;;;4932534;29;20043;-73
2022/11/07 03:02:33;;;;;;;4.57;2.28;;;10.10;96.70;;;;;;4948096;28;20482;-73
2022/11/07 03:05:01;;;;;;;4.20;2.58;;;10.20;96.70;;;;;;4946433;28;20111;-73
2022/11/07 03:07:29;;;;;;;3.22;2.17;;;10.20;96.70;;;;;;4936796;28;20051;-73
2022/11/07 03:09:56;;;;;;;3.33;2.20;;;10.10;96.70;;;;;;4957891;28;20047;-73
2022/11/07 03:12:26;;;;;;;4.15;2.40;;;10.10;96.70;;;;;;4934011;28;20085;-73
2022/11/07 03:14:54;;;;;;;3.63;2.30;;;10.00;96.70;;;;;;4930466;29;20043;-73
2022/11/07 03:17:22;;;;;;;5.18;2.45;;;10.10;96.70;;;;;;4931139;29;20156;-73
2022/11/07 03:19:50;;;;;;;3.85;2.38;;;10.20;96.70;;;;;;4914531;29;20498;-73
2022/11/07 03:22:18;;;;;;;3.60;2.28;;;10.10;96.70;;;;;;4931988;28;20130;-73
2022/11/07 03:24:46;;;;;;;4.40;2.45;;;10.00;96.70;;;;;;4947424;28;20141;-74
2022/11/07 03:27:14;;;;;;;4.50;2.72;;;10.10;96.70;;;;;;4924261;29;20053;-74
2022/11/07 03:29:43;;;;;;;5.05;2.17;;;10.20;96.70;;;;;;4941559;29;20047;-73
2022/11/07 03:32:11;;;;;;;3.42;2.03;;;10.30;96.70;;;;;;4934876;29;20043;-73
2022/11/07 03:34:39;;;;;;;3.53;2.20;;;10.30;96.70;;;;;;4952838;28;20043;-73
2022/11/07 03:37:07;;;;;;;3.45;2.38;;;10.40;96.70;;;;;;4939755;28;20430;-73
2022/11/07 03:39:35;;;;;;;3.15;2.35;;;10.40;96.70;;;;;;4946525;28;20525;-73
2022/11/07 03:42:03;;;;;;;3.95;2.22;;;10.30;96.70;;;;;;4936290;28;20047;-74
2022/11/07 03:44:31;;;;;;;2.97;2.00;;;10.20;96.70;;;;;;4967165;28;20058;-74
2022/11/07 03:47:01;;;;;;;3.95;2.38;;;10.10;96.70;;;;;;4946651;28;20062;-74
2022/11/07 03:49:32;;;;;;;3.30;1.70;;;10.10;96.70;;;;;;4959459;28;20094;-74
2022/11/07 03:52:11;;;;;;;4.03;2.20;;;10.20;96.70;;;;;;4953711;28;20059;-75
2022/11/07 03:54:39;;;;;;;2.38;1.90;;;10.20;96.70;;;;;;4964861;28;20651;-75
2022/11/07 03:57:07;;;;;;;3.22;2.22;;;10.30;96.70;;;;;;4928065;28;20055;-75
2022/11/07 03:59:36;;;;;;;4.10;2.33;;;10.10;96.70;;;;;;4934807;28;20051;-75
2022/11/07 04:02:05;;;;;;;3.00;2.35;;;10.10;96.70;;;;;;4945159;28;20497;-76
2022/11/07 04:04:33;;;;;;;4.57;2.40;;;10.10;96.70;;;;;;4941156;28;20097;-74
2022/11/07 04:07:01;;;;;;;5.05;2.58;;;10.20;96.70;;;;;;4947594;28;20129;-74
2022/11/07 04:09:30;;;;;;;3.35;2.00;;;10.20;96.70;;;;;;4953502;28;20055;-75
2022/11/07 04:17:32;;;;;;;2.65;1.90;;;10.10;96.70;;;;;;4946968;28;20135;-75
2022/11/07 04:20:00;;;;;;;3.65;2.05;;;10.10;96.70;;;;;;4930151;28;20584;-74
2022/11/07 04:22:28;;;;;;;4.00;1.90;;;10.10;96.70;;;;;;4928876;28;20113;-75
2022/11/07 04:24:56;;;;;;;2.65;1.75;;;10.10;96.70;;;;;;4940636;28;20051;-74
2022/11/07 04:27:43;;;;;;;3.28;2.20;;;10.00;96.70;;;;;;4944632;29;20051;-74
2022/11/07 04:30:21;;;;;;;3.03;1.90;;;10.10;96.70;;;;;;4946619;28;20556;-75
2022/11/07 04:32:52;;;;;;;3.45;1.90;;;10.10;96.70;;;;;;4939303;28;20333;-74
2022/11/07 04:35:22;;;;;;;3.10;1.98;;;10.10;96.70;;;;;;4930639;29;20068;-74
2022/11/07 04:37:50;;;;;;;5.03;2.03;;;10.00;96.70;;;;;;4929361;29;20414;-74
2022/11/07 04:40:19;;;;;;;2.95;1.98;;;10.00;96.70;;;;;;4935509;29;20051;-74
2022/11/07 04:42:48;;;;;;;2.70;1.85;;;10.10;96.70;;;;;;4938263;28;20110;-75
2022/11/07 04:45:16;;;;;;;3.47;2.17;;;10.10;96.70;;;;;;4974479;28;20059;-74
2022/11/07 04:47:45;;;;;;;5.43;2.50;;;10.20;96.70;;;;;;4957472;28;20049;-75
2022/11/07 04:50:17;;;;;;;2.53;1.77;;;10.10;96.70;;;;;;4966057;28;20122;-74
2022/11/07 04:52:45;;;;;;;5.78;2.38;;;10.00;96.70;;;;;;4935210;29;20513;-75
2022/11/07 04:55:19;;;;;;;7.10;2.50;;;10.10;96.70;;;;;;4929104;28;20051;-74
2022/11/07 04:57:47;;;;;;;3.40;2.25;;;10.00;96.70;;;;;;4924670;28;20055;-75
2022/11/07 05:00:16;;;;;;;2.85;2.13;;;10.10;96.70;;;;;;4929369;29;20221;-74
2022/11/07 05:02:45;;;;;;;3.83;2.40;;;10.10;96.70;;;;;;4928980;29;20106;-74
2022/11/07 05:05:15;;;;;;;4.03;2.13;;;9.90;96.70;;;;;;4929498;29;20040;-75
2022/11/07 05:07:43;;;;;;;4.82;2.90;;;9.80;96.70;;;;;;4927862;28;20058;-74
2022/11/07 05:10:18;;;;;;;4.72;2.60;;;9.90;96.70;;;;;;4938521;28;20047;-74
2022/11/07 05:12:46;;;;;;;4.35;2.30;;;10.00;96.70;;;;;;4933495;28;20054;-74
2022/11/07 05:15:15;;;;;;;3.65;2.17;;;10.10;96.70;;;;;;4942112;28;20093;-74
2022/11/07 05:17:43;;;;;;;4.65;2.38;;;10.10;96.70;;;;;;4955257;28;20102;-75
2022/11/07 05:20:26;;;;;;;2.88;2.20;;;10.10;96.70;;;;;;4927663;28;20147;-75
2022/11/07 05:25:44;;;;;;;4.38;2.25;;;10.00;96.70;;;;;;4956788;28;20059;-74
2022/11/07 05:28:14;;;;;;;3.85;2.10;;;9.90;96.70;;;;;;4945850;28;20498;-74
2022/11/07 05:30:44;;;;;;;5.32;2.30;;;10.10;96.70;;;;;;4927702;28;20054;-75
2022/11/07 05:33:13;;;;;;;4.38;2.40;;;10.20;96.70;;;;;;4951224;28;20386;-74
2022/11/07 05:35:44;;;;;;;2.92;2.47;;;10.20;96.70;;;;;;4932027;29;20498;-74
2022/11/07 05:38:12;;;;;;;2.78;1.80;;;10.20;96.70;;;;;;4950145;28;20147;-74
2022/11/07 05:40:40;;;;;;;4.78;2.50;;;10.20;96.70;;;;;;4945907;28;20043;-74
2022/11/07 05:43:10;;;;;;;2.63;1.90;;;10.20;96.70;;;;;;4949195;28;20703;-74
2022/11/07 05:45:40;;;;;;;3.70;2.42;;;10.10;96.70;;;;;;4955228;28;20049;-75
2022/11/07 05:48:10;;;;;;;4.22;2.15;;;10.20;96.70;;;;;;4964391;28;20058;-75
2022/11/07 05:50:39;;;;;;;5.10;2.42;;;10.10;96.70;;;;;;4929678;29;20158;-74
2022/11/07 05:53:08;;;;;;;4.65;2.45;;;10.10;96.70;;;;;;4937772;28;20422;-74
2022/11/07 05:55:36;;;;;;;2.92;2.08;;;10.10;96.70;;;;;;4937653;28;20090;-74
2022/11/07 05:58:09;;;;;;;4.25;2.10;;;10.10;96.70;;;;;;4939277;28;20105;-75
2022/11/07 06:00:37;;;;;;;3.53;2.03;;;10.00;96.70;;;;;;4949365;28;20061;-74
2022/11/07 06:03:06;;;;;;;11.38;2.97;;;9.90;96.70;;;;;;4944396;28;20043;-74
2022/11/07 06:05:35;;;;;;;3.50;1.98;;;10.00;96.70;;;;;;4943717;28;20054;-74
2022/11/07 06:08:03;;;;;;;4.13;1.92;;;10.10;96.70;;;;;;4946570;28;20066;-74
2022/11/07 06:10:34;;;;;;;6.88;2.17;;;10.10;96.70;;;;;;4943990;28;20480;-74
2022/11/07 06:13:03;;;;;;;5.32;2.38;;;10.10;96.70;;;;;;4940429;28;20074;-74
2022/11/07 06:15:34;;;;;;;4.35;1.95;;;10.10;96.70;;;;;;4930562;29;20048;-74
2022/11/07 06:18:05;;;;;;;2.92;2.20;;;10.10;96.70;;;;;;4960942;28;20394;-74
2022/11/07 06:20:34;;;;;;;5.43;2.08;;;10.10;96.70;;;;;;4909148;28;20115;-74
2022/11/07 06:23:04;;;;;;;3.13;2.03;;;10.10;96.70;;;;;;4946460;28;20741;-74
2022/11/07 06:25:34;;;;;;;4.03;1.90;;;9.90;96.70;;;;;;4959630;28;20051;-74
2022/11/07 06:28:04;;;;;;;5.00;2.03;;;9.80;96.70;;;;;;4931406;29;20083;-74
2022/11/07 06:30:33;;;;;;;4.60;2.08;;;10.00;96.70;;;;;;4946000;28;20453;-74
2022/11/07 06:33:02;;;;;;;2.40;1.88;;;10.00;96.70;;;;;;4941963;28;20049;-74
2022/11/07 06:35:30;;;;;;;3.22;2.10;;;10.10;96.70;;;;;;4968104;28;20121;-74
2022/11/07 06:38:01;;;;;;;3.63;2.15;;;10.20;96.70;;;;;;4958473;28;20043;-74
2022/11/07 06:40:30;;;;;;;3.78;2.10;;;10.20;96.70;;;;;;4923589;28;20050;-74
2022/11/07 06:43:06;;;;;;;4.43;2.13;;;10.30;96.70;;;;;;4956268;28;20632;-74
2022/11/07 06:45:34;;;;;;;3.50;1.90;;;10.20;96.70;;;;;;4928921;28;20504;-74
2022/11/07 06:48:02;;;;;;;3.78;2.00;;;10.40;96.70;;;;;;4960801;28;20434;-74
2022/11/07 06:50:31;;;;;;;6.07;2.47;;;10.40;96.70;;;;;;4962060;28;20074;-74
2022/11/07 06:53:03;;;;;;;3.85;2.30;;;10.30;96.70;;;;;;4939356;28;20063;-74
2022/11/07 06:55:33;;;;;;;3.50;2.10;;;10.20;96.70;;;;;;4951079;28;20047;-74
2022/11/07 06:58:02;;;;;;;3.95;2.13;;;10.30;96.70;;;;;;4949014;28;20043;-74
2022/11/07 07:00:32;;;;;;;5.28;2.53;;;10.50;96.70;;;;;;4950069;28;20057;-74
2022/11/07 07:03:01;;;;;;;3.45;2.15;;;10.50;96.70;;;;;;4930712;29;20051;-74
2022/11/07 07:05:29;;;;;;;3.65;2.28;;;10.60;96.70;;;;;;4949193;28;20039;-74
2022/11/07 07:07:57;;;;;;;4.72;2.20;;;10.70;96.70;;;;;;4931467;29;20058;-75
2022/11/07 07:10:27;;;;;;;10.63;3.35;;;10.80;96.70;;;;;;4927651;28;20044;-75
2022/11/07 07:12:55;;;;;;;3.03;1.98;;;10.70;96.70;;;;;;4941145;28;20051;-75
2022/11/07 07:15:23;;;;;;;4.53;2.20;;;10.70;96.70;;;;;;4965867;28;20039;-74
2022/11/07 07:17:53;;;;;;;10.13;4.18;;;10.70;96.70;;;;;;4934528;29;20055;-74
2022/11/07 07:20:21;;;;;;;8.13;3.15;;;10.70;96.70;;;;;;4930706;29;20050;-74
2022/11/07 07:22:49;;;;;;;6.72;3.50;;;10.90;96.70;;;;;;4933407;29;20462;-74
2022/11/07 07:25:26;;;;;;;5.30;2.95;;;11.00;96.70;;;;;;4923240;28;20047;-75
2022/11/07 07:27:54;;;;;;;7.03;2.97;;;11.10;96.70;;;;;;4930571;28;20142;-74
2022/11/07 07:30:22;;;;;;;4.85;2.70;;;11.10;96.70;;;;;;4957036;28;20043;-75
2022/11/07 07:32:52;;;;;;;3.42;2.70;;;11.20;96.70;;;;;;4945677;28;20121;-74
2022/11/07 07:35:20;;;;;;;4.82;2.90;;;11.30;96.70;;;;;;4931572;29;20083;-74
2022/11/07 07:37:49;;;;;;;4.18;2.78;;;11.40;96.70;;;;;;4947668;28;20043;-75
2022/11/07 07:40:18;;;;;;;4.28;2.65;;;11.30;96.70;;;;;;4944167;28;20702;-74
2022/11/07 07:42:49;;;;;;;4.40;2.30;;;11.30;96.70;;;;;;4942766;28;20133;-74
2022/11/07 07:45:17;;;;;;;4.68;2.80;;;11.40;96.70;;;;;;4932751;29;20374;-74
2022/11/07 07:47:45;;;;;;;6.57;2.55;;;11.40;96.70;;;;;;4934966;29;20043;-74
2022/11/07 07:50:15;;;;;;;6.32;2.30;;;11.60;96.70;;;;;;4957668;28;20054;-73
2022/11/07 07:52:43;;;;;;;6.47;2.50;;;11.70;96.70;;;;;;4961530;28;20047;-74
2022/11/07 07:55:11;;;;;;;3.20;2.17;;;11.80;96.70;;;;;;4937149;29;20150;-74
2022/11/07 07:57:40;;;;;;;4.30;2.42;;;11.90;96.70;;;;;;4930836;29;20498;-74
2022/11/07 08:00:11;;;;;;;5.53;2.40;;;11.90;96.70;;;;;;4936886;29;20059;-75
2022/11/07 08:02:42;;;;;;;3.67;2.20;;;12.00;96.70;;;;;;4959884;28;20133;-74
2022/11/07 08:05:12;;;;;;;4.45;2.65;;;12.00;96.70;;;;;;4941413;28;20053;-74
2022/11/07 08:07:50;;;;;;;2.60;2.20;;;12.10;96.70;;;;;;4962448;28;20126;-74
2022/11/07 08:10:19;;;;;;;3.95;2.50;;;12.20;96.70;;;;;;4957166;28;20053;-74
2022/11/07 08:13:07;;;;;;;3.35;2.30;;;12.20;96.70;;;;;;4927817;28;20178;-74
2022/11/07 08:15:35;;;;;;;4.25;2.88;;;12.30;96.70;;;;;;4957835;28;20047;-75
2022/11/07 08:18:03;;;;;;;3.22;2.35;;;12.30;96.70;;;;;;4931843;28;20097;-74
2022/11/07 08:20:31;;;;;;;2.30;2.10;;;12.30;96.70;;;;;;4947882;28;20138;-74
2022/11/07 08:23:02;;;;;;;5.38;2.92;;;12.40;96.70;;;;;;4929827;28;20047;-74
2022/11/07 08:25:31;;;;;;;3.67;2.72;;;12.40;96.70;;;;;;4939109;28;20091;-74
2022/11/07 08:27:59;;;;;;;5.45;3.17;;;12.40;96.70;;;;;;4943405;28;20038;-74
2022/11/07 08:30:27;;;;;;;4.88;3.53;;;12.40;96.70;;;;;;4929748;29;20154;-74
2022/11/07 08:32:58;;;;;;;4.85;3.28;;;12.40;96.70;;;;;;4928882;29;20075;-74
2022/11/07 08:35:26;;;;;;;4.55;3.17;;;12.50;96.70;;;;;;4946966;28;20520;-74
2022/11/07 08:37:54;;;;;;;5.72;3.60;;;12.50;96.70;;;;;;4958843;28;20086;-74
2022/11/07 08:40:24;;;;;;;5.35;3.70;;;12.50;96.70;;;;;;4935723;28;20051;-74
2022/11/07 08:42:57;;;;;;;6.90;3.90;;;12.50;96.70;;;;;;4943438;28;20078;-74
2022/11/07 08:45:25;;;;;;;5.80;3.47;;;12.60;96.70;;;;;;4933332;29;20047;-75
2022/11/07 08:47:56;;;;;;;4.90;3.35;;;12.80;96.70;;;;;;4946019;28;20047;-74
2022/11/07 08:50:25;;;;;;;4.32;3.15;;;13.00;96.70;;;;;;4928939;28;20147;-74
2022/11/07 08:52:53;;;;;;;5.38;3.25;;;12.90;96.70;;;;;;4928654;28;20047;-75
2022/11/07 08:55:30;;;;;;;9.27;3.17;;;12.90;96.70;;;;;;4953942;28;20438;-74
2022/11/07 08:57:59;;;;;;;5.38;3.10;;;12.90;96.70;;;;;;4946253;28;20142;-75
2022/11/07 09:00:27;;;;;;;5.05;2.97;;;12.90;96.70;;;;;;4958224;28;20078;-75
2022/11/07 09:02:55;;;;;;;5.30;2.63;;;13.00;96.70;;;;;;4937623;28;20552;-75
2022/11/07 09:05:43;;;;;;;5.40;2.70;;;13.00;96.70;;;;;;4943858;28;20070;-75
2022/11/07 09:08:11;;;;;;;5.18;2.70;;;13.10;96.70;;;;;;4956083;28;20137;-74
2022/11/07 09:10:41;;;;;;;5.28;2.88;;;13.10;96.70;;;;;;4946545;28;20089;-75
2022/11/07 09:13:09;;;;;;;6.40;2.78;;;13.20;96.70;;;;;;4932016;28;20130;-73
2022/11/07 09:15:37;;;;;;;4.55;2.33;;;13.50;96.70;;;;;;4937765;28;20105;-75
2022/11/07 09:18:05;;;;;;;4.07;2.50;;;13.60;96.70;;;;;;4930817;29;20043;-74
2022/11/07 09:20:34;;;;;;;4.47;2.63;;;13.50;96.70;;;;;;4959312;28;20043;-75
2022/11/07 09:23:02;;;;;;;3.80;2.40;;;13.60;96.70;;;;;;4936339;29;20577;-75
2022/11/07 09:25:30;;;;;;;4.75;2.58;;;13.70;96.70;;;;;;4962208;28;20135;-74
2022/11/07 09:28:03;;;;;;;4.95;2.60;;;13.80;96.70;;;;;;4955191;28;20061;-74
2022/11/07 09:30:31;;;;;;;4.35;2.13;;;13.70;96.70;;;;;;4917143;29;20154;-74
2022/11/07 09:32:59;;;;;;;2.78;1.92;;;13.90;96.70;;;;;;4943466;28;20066;-75
2022/11/07 09:35:28;;;;;;;3.97;2.58;;;14.00;96.70;;;;;;4959805;28;20047;-74
2022/11/07 09:37:56;;;;;;;4.40;1.80;;;14.00;96.70;;;;;;4931528;28;20045;-73
2022/11/07 09:40:39;;;;;;;4.05;2.17;;;14.10;96.70;;;;;;4927952;28;20459;-74
2022/11/07 09:43:27;;;;;;;3.35;2.10;;;14.20;96.70;;;;;;4909268;29;20063;-74
2022/11/07 09:46:03;;;;;;;3.83;2.08;;;14.30;96.70;;;;;;4936555;28;20047;-73
2022/11/07 09:48:40;;;;;;;4.25;2.03;;;14.30;96.70;;;;;;4944048;28;20065;-74
2022/11/07 09:51:13;;;;;;;3.58;1.73;;;14.40;96.70;;;;;;4954713;28;20097;-73
2022/11/07 09:53:45;;;;;;;4.63;2.10;;;14.50;96.70;;;;;;4962552;28;20051;-73
2022/11/07 09:56:14;;;;;;;4.15;2.15;;;14.70;96.70;;;;;;4927972;28;20051;-74
2022/11/07 09:58:50;;;;;;;3.80;1.85;;;14.80;96.70;;;;;;4928430;29;20106;-76
2022/11/07 10:01:20;;;;;;;5.57;2.00;;;14.90;96.70;;;;;;4943216;28;20052;-76
2022/11/07 10:03:49;;;;;;;4.63;2.13;;;14.90;96.70;;;;;;4947511;28;20048;-75
2022/11/07 10:06:45;;;;;;;4.50;2.30;;;14.80;96.70;;;;;;4933637;28;20054;-74
2022/11/07 10:09:21;;;;;;;5.90;2.92;;;14.80;96.70;;;;;;4934955;29;20533;-74
2022/11/07 10:11:57;;;;;;;6.10;2.90;;;14.90;96.70;;;;;;4915663;28;20119;-73
2022/11/07 10:14:37;;;;;;;5.28;3.15;;;15.10;96.70;;;;;;4945029;28;20051;-72
2022/11/07 10:17:17;;;;;;;5.13;2.83;;;15.30;96.70;;;;;;4966985;28;20054;-72
2022/11/07 10:20:00;;;;;;;7.20;3.60;;;15.30;96.70;;;;;;4954996;28;20054;-72
2022/11/07 10:22:41;;;;;;;5.93;3.08;;;15.40;96.70;;;;;;4968755;28;20058;-72
2022/11/07 10:25:23;;;;;;;8.38;3.13;;;15.40;96.70;;;;;;4921640;28;20055;-72
2022/11/07 10:28:07;;;;;;;5.32;3.05;;;15.40;96.70;;;;;;4964736;28;20235;-73
2022/11/07 10:30:37;;;;;;;4.50;2.63;;;15.40;96.70;;;;;;4961995;28;20053;-72
2022/11/07 10:33:12;;;;;;;4.75;2.90;;;15.50;96.70;;;;;;4930339;29;20405;-72
2022/11/07 10:35:45;;;;;;;3.65;2.55;;;15.60;96.70;;;;;;4932587;28;20470;-71
2022/11/07 10:38:20;;;;;;;6.28;2.95;;;15.60;96.70;;;;;;4927329;28;20054;-70
2022/11/07 10:40:50;;;;;;;6.93;3.17;;;15.70;96.70;;;;;;4953791;28;20046;-72
2022/11/07 10:43:26;;;;;;;4.28;2.78;;;15.90;96.70;;;;;;4921393;29;20063;-71
2022/11/07 10:45:56;;;;;;;5.25;2.78;;;15.80;96.70;;;;;;4929261;28;20110;-71
2022/11/07 10:48:28;;;;;;;4.97;2.47;;;15.80;96.70;;;;;;4929205;28;20054;-72
2022/11/07 10:50:56;;;;;;;4.75;2.40;;;15.80;96.70;;;;;;4914912;28;20055;-72
2022/11/07 10:53:25;;;;;;;3.88;2.45;;;15.80;96.70;;;;;;4929725;29;20498;-72
2022/11/07 10:55:54;;;;;;;4.90;2.47;;;15.80;96.70;;;;;;4958837;28;20051;-71
2022/11/07 10:58:25;;;;;;;4.10;2.40;;;15.90;96.70;;;;;;4934858;28;20039;-71
2022/11/07 11:01:04;;;;;;;3.22;2.20;;;15.90;96.70;;;;;;4948619;28;20514;-71
2022/11/07 11:03:37;;;;;;;4.57;2.05;;;16.00;96.70;;;;;;4929722;29;20073;-71
2022/11/07 11:06:22;;;;;;;3.88;2.13;;;16.00;96.70;;;;;;4930793;29;20066;-71
2022/11/07 11:08:51;;;;;;;4.38;2.45;;;16.30;96.70;;;;;;4950809;28;20130;-72
2022/11/07 11:11:32;;;;;;;4.50;2.10;;;16.30;96.70;;;;;;4936172;28;20506;-71
2022/11/07 11:14:02;;;;;;;3.58;1.80;;;16.30;96.70;;;;;;4956060;28;20109;-72
2022/11/07 11:16:36;;;;;;;3.92;1.77;;;16.50;96.70;;;;;;4941750;28;20494;-71
2022/11/07 11:19:06;;;;;;;4.32;1.92;;;16.80;96.70;;;;;;4928490;28;20062;-72
2022/11/07 11:21:42;;;;;;;4.35;2.13;;;16.80;96.70;;;;;;4957466;28;20512;-72
2022/11/07 11:24:21;;;;;;;4.57;2.08;;;16.90;96.70;;;;;;4934015;29;20051;-71
2022/11/07 11:26:51;;;;;;;2.90;2.00;;;17.00;96.70;;;;;;4947235;28;20043;-72
2022/11/07 11:29:28;;;;;;;2.28;1.60;;;17.00;96.70;;;;;;4948586;28;20457;-71
2022/11/07 11:32:00;;;;;;;4.20;2.15;;;17.10;96.70;;;;;;4929781;29;20055;-72
2022/11/07 11:34:39;;;;;;;3.70;1.50;;;17.50;96.70;;;;;;4955827;28;20058;-72
2022/11/07 11:37:13;;;;;;;2.80;1.48;;;17.50;96.70;;;;;;4951546;28;20050;-72
2022/11/07 11:39:48;;;;;;;3.17;1.60;;;17.60;96.70;;;;;;4929769;29;20051;-72
2022/11/07 11:42:26;;;;;;;2.47;1.40;;;17.70;96.70;;;;;;4963191;28;20110;-72
2022/11/07 11:44:58;;;;;;;2.53;1.50;;;17.90;96.70;;;;;;4928778;28;20043;-71
2022/11/07 11:47:34;;;;;;;3.28;1.45;;;18.00;96.70;;;;;;4931139;28;20051;-72
2022/11/07 11:50:09;;;;;;;2.50;1.17;;;18.10;96.70;;;;;;4946765;28;20047;-71
2022/11/07 11:52:37;;;;;;;3.15;1.50;;;18.40;96.70;;;;;;4931088;29;20118;-71
2022/11/07 11:55:12;;;;;;;3.35;1.52;;;18.30;96.70;;;;;;4938943;28;20450;-71
2022/11/07 11:57:49;;;;;;;2.33;1.25;;;18.10;96.70;;;;;;4952735;28;20454;-72
2022/11/07 12:00:19;;;;;;;4.20;1.60;;;18.30;96.70;;;;;;4932549;29;20062;-72
2022/11/07 12:03:31;;;;;;;3.20;1.55;;;18.10;96.70;;;;;;4938493;28;20047;-71
2022/11/07 12:06:13;;;;;;;1.70;1.35;;;18.10;96.70;;;;;;4940131;28;20089;-71
2022/11/07 12:09:14;;;;;;;3.17;1.20;;;18.30;96.70;;;;;;4954053;28;20051;-71
2022/11/07 12:11:55;;;;;;;8.23;2.00;;;18.60;96.70;;;;;;4939833;28;20145;-72
2022/11/07 12:14:37;;;;;;;5.18;3.40;;;18.90;96.70;;;;;;4957121;28;20599;-72
2022/11/07 12:17:09;;;;;;;3.95;2.15;;;19.10;96.70;;;;;;4946947;28;20101;-72
2022/11/07 12:19:47;;;;;;;5.18;2.00;;;19.20;96.70;;;;;;4934923;29;20083;-72
2022/11/07 12:22:23;;;;;;;3.22;1.95;;;19.00;96.70;;;;;;4946657;28;20055;-72
2022/11/07 12:24:54;;;;;;;;;;;18.90;96.70;;;;;;4928822;28;20138;-72
2022/11/07 12:27:31;;;;;;;2.75;1.55;;;18.80;96.70;;;;;;4947436;28;19942;-72
2022/11/07 12:30:07;;;;;;;3.60;2.20;;;18.60;96.70;;;;;;4934759;29;20050;-72
2022/11/07 12:32:48;;;;;;;3.63;1.88;;;18.50;96.70;;;;;;4945628;28;20066;-72
2022/11/07 12:35:33;;;;;;;3.30;1.80;;;18.50;96.70;;;;;;4954601;28;20165;-72
2022/11/07 12:38:23;;;;;;;3.60;1.65;;;18.60;96.70;;;;;;4937925;29;20051;-72
2022/11/07 12:41:01;;;;;;;4.32;2.20;;;18.40;96.70;;;;;;4964276;28;20125;-72
2022/11/07 12:43:44;;;;;;;4.72;1.38;;;18.20;96.70;;;;;;4948481;28;20055;-72
2022/11/07 12:46:24;;;;;;;5.40;1.83;;;18.10;96.70;;;;;;4928208;29;20047;-72
2022/11/07 12:49:29;;;;;;;6.18;1.65;;;18.00;96.70;;;;;;4924915;28;20248;-72
2022/11/07 12:52:12;;;;;;;4.35;1.50;;;17.90;96.70;;;;;;4942733;28;20488;-72
2022/11/07 12:54:48;;;;;;;5.22;1.70;;;18.20;96.70;;;;;;4950541;28;20046;-71
2022/11/07 12:57:20;;;;;;;3.53;1.77;;;18.20;96.70;;;;;;4938163;29;20131;-72
2022/11/07 12:59:53;;;;;;;2.88;1.48;;;18.30;96.70;;;;;;4914938;28;20110;-72
2022/11/07 13:02:36;;;;;;;3.15;1.75;;;18.20;96.70;;;;;;4943566;28;20047;-72
2022/11/07 13:05:20;;;;;;;4.97;2.58;;;18.20;96.70;;;;;;4924557;29;20109;-72
2022/11/07 13:07:57;;;;;;;2.65;1.40;;;18.20;96.70;;;;;;4950726;28;20087;-71
2022/11/07 13:10:32;;;;;;;2.22;1.30;;;18.30;96.70;;;;;;4956100;28;20059;-72
2022/11/07 13:13:07;;;;;;;3.60;1.30;;;18.30;96.70;;;;;;4936761;28;20050;-72
2022/11/07 13:15:37;;;;;;;2.85;1.20;;;18.30;96.70;;;;;;4960503;28;20046;-72
2022/11/07 13:18:27;;;;;;;4.20;1.42;;;18.20;96.70;;;;;;4946906;28;20050;-71
2022/11/07 13:20:59;;;;;;;2.85;1.52;;;18.10;96.70;;;;;;4954265;28;20146;-73
2022/11/07 13:23:29;;;;;;;2.75;1.52;;;18.00;96.70;;;;;;4945948;28;20051;-72